Time;durP1;ratioP1;P1;durP2;ratioP2;P2;SDS_P1;SDS_P2;PMS_P1;PMS_P2;Temp;Humidity;BMP_temperature;BMP_pressure;BME280_temperature;BME280_humidity;BME280_pressure;Samples;Min_cycle;Max_cycle;Signal;HPM_P1;HPM_P2
2021/12/09 00:06:59;;;;;;;2.33;1.10;;;;;;;15.09;49.38;99767.94;21155713;28;20063;-73
2021/12/09 00:17:06;;;;;;;1.95;1.20;;;;;;;14.93;49.44;99737.22;21137356;28;20135;-73
2021/12/09 00:27:07;;;;;;;3.03;1.77;;;;;;;15.08;49.37;99766.25;21136831;28;20051;-73
2021/12/09 00:37:28;;;;;;;2.13;1.33;;;;;;;15.01;48.93;99768.66;21154285;28;20047;-72
2021/12/09 00:47:30;;;;;;;2.75;1.48;;;;;;;15.07;49.10;99781.47;21155324;28;20051;-72
2021/12/09 00:57:34;;;;;;;2.72;1.35;;;;;;;14.84;49.21;99748.81;21140539;28;20048;-72
2021/12/09 01:07:37;;;;;;;3.40;1.50;;;;;;;14.43;48.88;99681.19;21134362;28;20048;-72
2021/12/09 01:17:39;;;;;;;2.35;1.50;;;;;;;15.08;49.36;99791.22;21167705;28;20044;-72
2021/12/09 01:27:43;;;;;;;2.28;1.30;;;;;;;15.08;49.28;99814.50;21132015;28;20077;-73
2021/12/09 01:37:46;;;;;;;3.15;1.35;;;;;;;13.88;48.75;99600.53;21148425;28;20104;-72
2021/12/09 01:47:48;;;;;;;2.35;1.30;;;;;;;15.02;49.13;99804.34;21165628;28;20443;-72
2021/12/09 01:57:51;;;;;;;2.15;1.38;;;;;;;15.04;48.87;99783.63;21165593;28;20058;-72
2021/12/09 02:07:53;;;;;;;3.35;1.50;;;;;;;15.01;48.98;99800.84;21144953;28;20051;-72
2021/12/09 02:17:56;;;;;;;2.28;1.83;;;;;;;14.91;48.97;99771.38;21162943;28;20040;-72
2021/12/09 02:27:58;;;;;;;3.17;1.70;;;;;;;15.03;49.24;99800.69;21115293;28;20447;-72
2021/12/09 02:37:59;;;;;;;3.08;1.50;;;;;;;15.00;48.67;99780.38;21116461;28;20056;-73
2021/12/09 02:48:02;;;;;;;4.50;1.67;;;;;;;14.92;48.66;99809.75;21117913;28;20448;-73
2021/12/09 02:58:04;;;;;;;3.30;1.52;;;;;;;14.24;48.78;99679.38;21098947;28;20044;-73
2021/12/09 03:08:05;;;;;;;3.88;1.60;;;;;;;14.98;48.26;99811.84;21074826;28;20048;-72
2021/12/09 03:18:07;;;;;;;2.58;1.40;;;;;;;14.43;48.59;99718.69;21073789;28;20043;-73
2021/12/09 03:28:09;;;;;;;3.30;1.67;;;;;;;14.33;48.64;99708.81;21073569;28;20052;-73
2021/12/09 03:38:11;;;;;;;3.35;1.95;;;;;;;14.83;48.50;99786.50;21072901;28;20047;-73
2021/12/09 03:48:13;;;;;;;3.75;1.90;;;;;;;14.75;48.34;99805.94;21054739;28;20060;-73
2021/12/09 03:58:15;;;;;;;3.47;1.60;;;;;;;14.96;48.72;99799.56;21072060;28;20044;-72
2021/12/09 04:08:17;;;;;;;3.67;1.58;;;;;;;14.30;48.22;99711.78;21053612;28;20489;-72
2021/12/09 04:18:20;;;;;;;2.45;1.63;;;;;;;14.92;48.31;99810.56;21071134;28;20036;-73
2021/12/09 04:28:22;;;;;;;3.17;1.55;;;;;;;14.27;48.44;99716.56;21054247;28;20056;-72
2021/12/09 04:38:25;;;;;;;2.42;1.70;;;;;;;13.74;47.95;99633.06;21050010;28;20048;-72
2021/12/09 04:48:27;;;;;;;4.18;1.98;;;;;;;14.91;48.10;99843.72;21086363;28;20466;-73
2021/12/09 04:58:29;;;;;;;4.78;2.35;;;;;;;14.89;48.51;99826.09;21085173;28;20048;-73
2021/12/09 05:08:33;;;;;;;2.35;1.65;;;;;;;14.90;48.23;99827.81;21066090;28;20058;-73
2021/12/09 05:18:38;;;;;;;3.75;1.85;;;;;;;14.89;48.06;99848.38;21083459;28;20072;-72
2021/12/09 05:28:40;;;;;;;4.30;2.10;;;;;;;14.99;47.83;99850.19;21082918;28;20501;-73
2021/12/09 05:38:43;;;;;;;2.97;1.70;;;;;;;15.12;47.88;99821.28;21082089;28;20048;-72
2021/12/09 05:48:44;;;;;;;3.25;1.90;;;;;;;15.60;48.01;99845.41;21129107;28;20496;-73
2021/12/09 05:58:46;;;;;;;2.28;1.60;;;;;;;15.77;47.73;99812.41;21165500;28;20085;-73
2021/12/09 06:08:49;;;;;;;2.83;1.75;;;;;;;15.60;47.29;99740.78;21163647;28;20442;-71
2021/12/09 06:18:52;;;;;;;2.45;1.40;;;;;;;16.41;47.20;99856.47;21163508;28;20043;-72
2021/12/09 06:28:54;;;;;;;2.83;1.52;;;;;;;16.50;47.21;99871.66;21144353;28;20039;-71
2021/12/09 06:38:56;;;;;;;4.15;1.77;;;;;;;16.58;47.04;99877.13;21161585;28;20040;-73
2021/12/09 06:48:58;;;;;;;4.45;1.60;;;;;;;16.60;47.12;99867.06;21160689;28;20051;-72
2021/12/09 06:59:00;;;;;;;3.45;1.90;;;;;;;16.62;47.25;99867.75;21159443;28;20048;-74
2021/12/09 07:09:10;;;;;;;5.28;1.90;;;;;;;16.13;47.45;99794.72;21142097;28;20044;-74
2021/12/09 07:19:13;;;;;;;6.43;1.75;;;;;;;16.17;47.96;99812.22;21140387;28;20044;-74
2021/12/09 07:29:15;;;;;;;2.50;1.77;;;;;;;16.84;47.83;99903.25;21139652;28;20047;-75
2021/12/09 07:39:17;;;;;;;3.33;1.80;;;;;;;16.78;48.09;99888.56;21157699;28;20048;-74
2021/12/09 07:49:19;;;;;;;3.83;1.60;;;;;;;16.33;47.85;99825.81;21156733;28;20480;-71
2021/12/09 07:59:21;;;;;;;3.15;1.60;;;;;;;16.72;47.61;99904.44;21156303;28;20039;-71
2021/12/09 08:09:23;;;;;;;4.28;2.03;;;;;;;16.89;47.39;99927.81;21145917;28;20138;-71
2021/12/09 08:19:25;;;;;;;3.33;1.75;;;;;;;16.89;47.25;99917.06;21172905;28;20134;-71
2021/12/09 08:29:26;;;;;;;2.75;1.60;;;;;;;16.47;47.22;99854.00;21171986;28;20048;-71
2021/12/09 08:39:28;;;;;;;5.00;2.28;;;;;;;16.33;46.96;99839.25;21169754;28;20092;-72
2021/12/09 08:49:30;;;;;;;5.07;2.00;;;;;;;16.96;47.05;99958.47;21169551;28;20055;-71
2021/12/09 08:59:32;;;;;;;4.18;1.88;;;;;;;17.02;47.23;99942.75;21151617;28;20048;-73
2021/12/09 09:09:41;;;;;;;3.10;2.00;;;;;;;17.03;47.16;99933.69;21150645;28;20059;-73
2021/12/09 09:19:42;;;;;;;3.53;1.70;;;;;;;16.60;47.03;99869.75;21167462;28;20043;-72
2021/12/09 09:29:44;;;;;;;3.65;1.70;;;;;;;16.96;47.26;99953.09;21167146;28;20043;-71
2021/12/09 09:39:47;;;;;;;4.00;1.65;;;;;;;16.81;47.24;99946.56;21164247;28;20043;-72
2021/12/09 09:49:50;;;;;;;4.32;1.75;;;;;;;16.53;47.70;99914.34;21144141;28;20060;-72
2021/12/09 09:59:52;;;;;;;3.00;1.50;;;;;;;16.49;47.87;99918.34;21161438;28;20514;-72
2021/12/09 10:09:54;;;;;;;2.22;1.40;;;;;;;16.41;48.16;99918.25;21161769;28;20060;-71
2021/12/09 10:19:58;;;;;;;2.88;1.48;;;;;;;16.28;48.38;99932.84;21162994;28;20101;-71
2021/12/09 10:30:11;;;;;;;2.50;1.17;;;;;;;16.20;48.26;99928.25;21161291;28;20369;-71
2021/12/09 10:40:19;;;;;;;3.25;1.13;;;;;;;15.96;48.80;99901.94;21162143;28;20040;-72
2021/12/09 10:50:34;;;;;;;2.97;1.40;;;;;;;16.12;48.45;99936.19;21160726;28;20062;-71
2021/12/09 11:00:45;;;;;;;4.07;2.22;;;;;;;15.35;48.68;99805.69;21159714;28;20043;-71
2021/12/09 11:10:49;;;;;;;2.97;1.38;;;;;;;16.08;48.49;99927.59;21141118;28;20400;-71
2021/12/09 11:20:51;;;;;;;4.10;1.35;;;;;;;15.65;48.51;99854.69;21157323;28;20593;-71
2021/12/09 11:31:07;;;;;;;2.50;1.30;;;;;;;15.39;48.19;99792.81;21157677;28;20047;-71
2021/12/09 11:41:31;;;;;;;3.53;1.70;;;;;;;15.44;48.20;99803.94;21157081;28;20052;-72
2021/12/09 11:51:39;;;;;;;2.90;1.25;;;;;;;15.53;48.28;99810.25;21156546;28;20126;-72
2021/12/09 12:12:56;;;;;;;2.50;1.35;;;;;;;16.13;48.63;99905.69;21119831;28;20443;-71
2021/12/09 12:33:14;;;;;;;3.83;1.63;;;;;;;16.38;48.26;99853.09;21155184;28;20055;-72
2021/12/09 12:43:37;;;;;;;2.72;1.33;;;;;;;16.05;48.18;99790.97;21154624;28;20044;-72
2021/12/09 12:53:43;;;;;;;3.60;1.70;;;;;;;16.01;48.10;99799.47;21158944;28;20048;-73
2021/12/09 13:03:51;;;;;;;;;;;;;;;16.79;48.02;99897.44;21169531;28;20105;-72
2021/12/09 13:14:05;;;;;;;3.28;1.58;;;;;;;16.44;48.05;99826.59;21168604;28;19926;-73
2021/12/09 13:24:25;;;;;;;4.28;1.55;;;;;;;16.86;48.55;99895.88;21168401;28;20055;-73
2021/12/09 13:34:46;;;;;;;2.55;1.45;;;;;;;16.93;47.96;99888.88;21168544;28;20701;-72
2021/12/09 13:55:16;;;;;;;3.22;2.10;;;;;;;16.98;47.88;99882.22;21165243;28;20109;-73
2021/12/09 14:05:18;;;;;;;2.63;1.48;;;;;;;16.50;47.93;99791.91;21146561;28;20100;-73
2021/12/09 14:15:33;;;;;;;3.92;1.65;;;;;;;16.50;47.94;99793.75;21163660;28;20382;-73
2021/12/09 14:25:36;;;;;;;3.70;1.67;;;;;;;16.99;47.83;99879.34;21146130;28;20491;-73
2021/12/09 14:35:46;;;;;;;4.13;1.58;;;;;;;17.12;47.74;99895.09;21126976;28;20047;-73
2021/12/09 14:45:54;;;;;;;2.65;1.45;;;;;;;17.14;47.67;99892.25;21161241;28;20039;-73
2021/12/09 14:55:55;;;;;;;2.92;1.65;;;;;;;17.17;47.54;99908.91;21152242;28;20043;-73
2021/12/09 15:05:59;;;;;;;4.30;2.05;;;;;;;17.17;47.40;99898.16;21160575;28;20413;-73
2021/12/09 15:16:06;;;;;;;3.80;2.20;;;;;;;17.20;47.43;99891.63;21140890;28;20056;-73
2021/12/09 15:26:24;;;;;;;1.92;1.48;;;;;;;17.22;47.52;99885.06;21158545;28;20051;-73
2021/12/09 15:36:29;;;;;;;3.15;1.70;;;;;;;17.23;47.36;99902.94;21157894;28;20522;-73
2021/12/09 15:46:42;;;;;;;3.30;1.73;;;;;;;17.08;47.57;99859.63;21157194;28;20434;-72
2021/12/09 15:56:51;;;;;;;2.20;1.60;;;;;;;17.27;47.50;99886.47;21138689;28;20112;-73
2021/12/09 16:06:58;;;;;;;2.72;1.73;;;;;;;17.28;47.41;99880.94;21156476;28;20056;-73
2021/12/09 16:17:03;;;;;;;2.15;1.50;;;;;;;17.27;47.50;99864.97;21155953;28;20039;-73
2021/12/09 16:27:05;;;;;;;2.40;1.55;;;;;;;16.69;47.09;99765.88;21123533;28;20046;-73
2021/12/09 16:37:08;;;;;;;3.17;1.50;;;;;;;17.24;47.35;99845.44;21171580;28;20052;-73
2021/12/09 16:47:10;;;;;;;2.00;1.30;;;;;;;16.72;47.19;99754.81;21152747;28;20488;-73
2021/12/09 16:57:24;;;;;;;2.03;1.30;;;;;;;17.34;47.30;99856.09;21170173;28;20166;-73
2021/12/09 17:07:26;;;;;;;2.75;1.58;;;;;;;17.36;47.20;99859.47;21170159;28;20047;-73
2021/12/09 17:17:31;;;;;;;2.50;1.40;;;;;;;16.78;47.27;99759.53;21168497;28;20054;-73
2021/12/09 17:27:33;;;;;;;2.40;1.42;;;;;;;17.23;47.30;99806.09;21167974;28;20395;-73
2021/12/09 17:37:35;;;;;;;2.28;1.40;;;;;;;17.30;47.13;99821.59;21148581;28;20048;-73
2021/12/09 17:47:37;;;;;;;2.65;1.50;;;;;;;16.85;47.24;99738.28;21148051;28;20044;-73
2021/12/09 17:57:43;;;;;;;2.33;1.75;;;;;;;17.48;47.17;99840.38;21166240;28;20040;-73
2021/12/09 18:07:46;;;;;;;3.38;1.77;;;;;;;17.44;47.17;99853.28;21164356;28;20048;-73
2021/12/09 18:17:50;;;;;;;2.67;1.70;;;;;;;17.44;47.06;99845.22;21163429;28;20100;-73
2021/12/09 18:27:52;;;;;;;2.92;2.00;;;;;;;17.17;47.35;99812.09;21144897;28;20059;-72
2021/12/09 18:38:00;;;;;;;3.05;1.60;;;;;;;16.67;47.27;99749.88;21144103;28;20089;-73
2021/12/09 18:48:04;;;;;;;2.28;1.58;;;;;;;16.58;47.36;99764.25;21161321;28;20043;-72
2021/12/09 18:58:09;;;;;;;3.50;2.10;;;;;;;16.94;47.59;99838.63;21159586;28;20062;-72
2021/12/09 19:08:14;;;;;;;3.63;2.13;;;;;;;16.16;47.97;99738.91;21141570;28;20091;-72
2021/12/09 19:18:25;;;;;;;3.53;2.00;;;;;;;16.61;48.03;99827.59;21159082;28;20085;-72
2021/12/09 19:28:28;;;;;;;2.85;2.10;;;;;;;16.20;48.54;99774.31;21141878;28;20047;-72
2021/12/09 19:38:30;;;;;;;3.75;2.38;;;;;;;16.24;48.54;99821.34;21157506;28;20092;-73
2021/12/09 19:48:31;;;;;;;4.30;2.20;;;;;;;16.25;49.00;99796.19;21157270;28;20044;-72
2021/12/09 19:58:34;;;;;;;3.67;2.28;;;;;;;15.75;49.20;99722.34;21156627;28;20058;-72
2021/12/09 20:08:39;;;;;;;4.35;2.90;;;;;;;15.73;49.50;99732.38;21146886;28;20063;-72
2021/12/09 20:18:42;;;;;;;5.93;2.37;;;;;;;15.85;49.54;99759.81;21184306;28;20079;-74
2021/12/09 20:28:44;;;;;;;4.00;2.40;;;;;;;15.15;49.72;99659.28;21183701;28;20539;-72
2021/12/09 20:38:46;;;;;;;6.07;2.80;;;;;;;14.94;49.93;99621.00;21148345;28;20040;-72
2021/12/09 20:48:50;;;;;;;5.97;2.92;;;;;;;15.08;49.89;99649.16;21183019;28;20043;-72
2021/12/09 20:58:52;;;;;;;5.38;2.97;;;;;;;15.39;50.10;99696.25;21148658;28;20042;-72
2021/12/09 21:08:54;;;;;;;4.68;3.00;;;;;;;14.72;49.77;99590.06;21182230;28;20051;-72
2021/12/09 21:18:56;;;;;;;7.43;3.75;;;;;;;14.75;49.77;99599.66;21153677;28;20164;-72
2021/12/09 21:28:59;;;;;;;7.07;3.40;;;;;;;15.06;49.75;99634.22;21167801;28;20043;-72
2021/12/09 21:39:00;;;;;;;6.65;3.53;;;;;;;14.41;50.07;99517.16;21166888;28;20088;-72
2021/12/09 21:49:03;;;;;;;8.25;3.80;;;;;;;14.85;50.18;99605.81;21166261;28;20047;-72
2021/12/09 21:59:05;;;;;;;7.25;3.25;;;;;;;14.94;50.38;99621.00;21165527;28;20070;-72
2021/12/09 22:09:07;;;;;;;5.05;3.80;;;;;;;15.01;50.24;99609.69;21164908;28;20083;-73
2021/12/09 22:19:09;;;;;;;4.93;3.50;;;;;;;14.89;50.45;99580.41;21163576;28;20657;-72
2021/12/09 22:29:22;;;;;;;4.78;2.80;;;;;;;14.85;50.69;99573.66;21161804;28;20043;-72
2021/12/09 22:39:24;;;;;;;6.95;3.45;;;;;;;14.73;50.32;99537.34;21143813;28;20051;-71
2021/12/09 22:49:35;;;;;;;6.13;3.33;;;;;;;14.34;50.37;99453.50;21143390;28;20050;-72
2021/12/09 22:59:37;;;;;;;4.70;2.95;;;;;;;14.89;50.60;99534.84;21161507;28;20051;-72
2021/12/09 23:09:39;;;;;;;4.60;3.17;;;;;;;15.03;50.22;99520.09;21159642;28;20051;-72
2021/12/09 23:19:41;;;;;;;4.65;2.83;;;;;;;15.05;50.12;99515.44;21158844;28;20040;-72
2021/12/09 23:29:43;;;;;;;4.20;3.30;;;;;;;14.96;50.08;99483.31;21140434;28;20044;-72
2021/12/09 23:39:45;;;;;;;4.40;3.03;;;;;;;14.98;50.25;99465.25;21157275;28;20051;-72
2021/12/09 23:49:47;;;;;;;4.90;2.85;;;;;;;14.45;50.20;99357.88;21157363;28;20130;-72
2021/12/09 23:59:49;;;;;;;6.57;2.83;;;;;;;15.03;50.24;99457.63;21156871;28;20052;-72
